createdAt,value
2023-03-07T08:54:16.326Z,98131.64
2023-03-07T08:56:44.137Z,98133.42
2023-03-07T08:59:11.176Z,98135.79
2023-03-07T09:04:32.040Z,98141.65
2023-03-07T09:09:52.570Z,98145.92
2023-03-07T09:14:10.791Z,98153.87
2023-03-07T09:16:39.905Z,98152.06
2023-03-07T09:19:08.230Z,98152.45
2023-03-07T09:22:51.260Z,98157.14
2023-03-07T09:25:18.613Z,98154.71
2023-03-07T09:27:47.321Z,98149.80
2023-03-07T09:30:15.234Z,98151.73
2023-03-07T09:32:42.662Z,98154.88
2023-03-07T09:35:10.865Z,98155.69
2023-03-07T09:37:38.022Z,98160.23
2023-03-07T09:40:14.693Z,98162.09
2023-03-07T09:43:20.782Z,98163.96
2023-03-07T09:46:28.230Z,98167.58
2023-03-07T09:49:17.562Z,98165.02
2023-03-07T09:51:45.761Z,98166.49
2023-03-07T09:54:23.036Z,98164.34
2023-03-07T09:56:59.576Z,98165.27
2023-03-07T09:59:39.366Z,98169.93
2023-03-07T10:02:24.592Z,98166.77
2023-03-07T10:04:58.730Z,98163.90
2023-03-07T10:07:27.084Z,98163.05
2023-03-07T10:09:57.001Z,98162.77
2023-03-07T10:12:34.928Z,98157.52
2023-03-07T10:15:35.103Z,98152.34
2023-03-07T10:18:39.654Z,98146.34
2023-03-07T10:21:25.802Z,98146.44
2023-03-07T10:23:56.337Z,98148.38
2023-03-07T10:26:30.593Z,98146.86
2023-03-07T10:28:57.708Z,98152.97
2023-03-07T10:31:29.160Z,98143.42
2023-03-07T10:33:56.853Z,98142.05
2023-03-07T10:36:38.087Z,98140.10
2023-03-07T10:39:36.540Z,98142.06
2023-03-07T10:42:04.272Z,98139.22
2023-03-07T10:44:35.519Z,98136.08
2023-03-07T10:47:05.252Z,98136.71
2023-03-07T10:49:43.638Z,98130.87
2023-03-07T10:52:26.174Z,98133.16
2023-03-07T10:54:54.728Z,98133.36
2023-03-07T10:57:28.296Z,98130.24
2023-03-07T10:59:56.018Z,98126.17
2023-03-07T11:02:36.450Z,98125.09
2023-03-07T11:05:40.479Z,98122.46
2023-03-07T11:08:31.379Z,98117.41
2023-03-07T11:11:00.648Z,98117.90
2023-03-07T11:13:28.740Z,98119.13
2023-03-07T11:16:28.542Z,98120.23
2023-03-07T11:18:57.134Z,98123.52
2023-03-07T11:21:33.750Z,98119.75
2023-03-07T11:24:05.855Z,98121.34
2023-03-07T11:26:38.805Z,98117.92
2023-03-07T11:29:11.029Z,98112.48
2023-03-07T11:32:13.687Z,98112.20
2023-03-07T11:34:45.922Z,98115.05
2023-03-07T11:37:29.730Z,98111.70
2023-03-07T11:40:23.783Z,98117.32
